createdAt,value
2018-05-11T00:01:08.799Z,5.37
2018-05-11T00:03:35.011Z,5.03
2018-05-11T00:06:01.237Z,4.65
2018-05-11T00:08:27.482Z,4.93
2018-05-11T00:10:53.731Z,5.35
2018-05-11T00:13:19.947Z,5.40
2018-05-11T00:15:46.159Z,5.57
2018-05-11T00:18:12.380Z,4.95
2018-05-11T00:20:38.614Z,5.28
2018-05-11T00:23:04.883Z,4.68
2018-05-11T00:25:31.112Z,4.80
2018-05-11T00:27:57.331Z,4.90
2018-05-11T00:30:23.543Z,4.90
2018-05-11T00:32:49.790Z,4.47
2018-05-11T00:35:16.021Z,5.87
2018-05-11T00:37:42.266Z,4.85
2018-05-11T00:40:08.872Z,4.80
2018-05-11T00:42:35.122Z,4.78
2018-05-11T00:45:01.349Z,4.57
2018-05-11T00:47:27.560Z,4.80
2018-05-11T00:49:53.803Z,4.05
2018-05-11T00:52:20.050Z,4.40
2018-05-11T00:54:46.635Z,4.60
2018-05-11T00:57:12.867Z,4.12
2018-05-11T00:59:39.079Z,4.85
2018-05-11T01:02:05.309Z,5.32
2018-05-11T01:04:31.528Z,4.15
2018-05-11T01:06:57.793Z,5.00
2018-05-11T01:09:23.985Z,4.40
2018-05-11T01:11:50.207Z,4.80
2018-05-11T01:14:16.430Z,4.40
2018-05-11T01:16:42.680Z,4.55
2018-05-11T01:19:08.903Z,4.30
2018-05-11T01:21:35.144Z,4.50
2018-05-11T01:24:01.362Z,4.85
2018-05-11T01:26:27.609Z,4.78
2018-05-11T01:28:53.816Z,4.50
2018-05-11T01:31:20.080Z,4.40
2018-05-11T01:33:46.275Z,4.50
2018-05-11T01:36:12.475Z,5.37
2018-05-11T01:38:38.705Z,6.12
2018-05-11T01:41:04.934Z,12.85
2018-05-11T01:43:31.169Z,15.55
2018-05-11T01:45:57.416Z,14.27
2018-05-11T01:48:23.632Z,11.18
2018-05-11T01:50:49.869Z,9.30
2018-05-11T01:53:16.140Z,7.85
2018-05-11T01:55:42.356Z,7.95
2018-05-11T01:58:08.580Z,8.93
2018-05-11T02:00:34.794Z,8.50
2018-05-11T02:03:01.018Z,7.45
2018-05-11T02:05:27.230Z,8.10
2018-05-11T02:07:53.458Z,9.18
2018-05-11T02:10:20.334Z,8.90
2018-05-11T02:12:46.562Z,10.15
2018-05-11T02:15:12.800Z,10.25
2018-05-11T02:17:39.418Z,9.20
2018-05-11T02:20:05.649Z,9.90
2018-05-11T02:22:31.898Z,9.82
2018-05-11T02:24:58.112Z,9.85
2018-05-11T02:27:24.348Z,9.30
2018-05-11T02:29:50.640Z,7.80
2018-05-11T02:32:16.873Z,9.00
2018-05-11T02:34:43.079Z,5.30
2018-05-11T02:37:09.322Z,5.22
2018-05-11T02:39:35.559Z,5.15
2018-05-11T02:42:01.768Z,4.97
2018-05-11T02:44:27.969Z,4.65
2018-05-11T02:46:54.552Z,4.90
2018-05-11T02:49:20.787Z,4.10
2018-05-11T02:51:46.999Z,5.10
2018-05-11T02:54:13.211Z,4.90
2018-05-11T02:56:46.265Z,4.40
2018-05-11T02:59:12.425Z,4.30
2018-05-11T03:01:38.631Z,5.10
2018-05-11T03:04:04.860Z,3.83
2018-05-11T03:06:31.102Z,5.22
2018-05-11T03:08:57.351Z,4.30
2018-05-11T03:11:23.540Z,5.03
2018-05-11T03:13:50.120Z,4.43
2018-05-11T03:16:16.351Z,4.87
2018-05-11T03:18:42.687Z,4.00
2018-05-11T03:21:08.797Z,5.53
2018-05-11T03:23:36.793Z,4.57
2018-05-11T03:26:03.680Z,5.35
2018-05-11T03:28:35.393Z,4.68
2018-05-11T03:33:47.051Z,5.07
2018-05-11T03:36:13.292Z,4.40
2018-05-11T03:38:39.535Z,5.40
2018-05-11T03:41:05.721Z,4.70
2018-05-11T03:43:31.944Z,4.90
2018-05-11T03:45:58.144Z,5.37
2018-05-11T03:48:24.400Z,4.40
2018-05-11T03:50:50.623Z,4.85
2018-05-11T03:53:16.852Z,5.57
2018-05-11T03:55:43.053Z,5.00
2018-05-11T03:58:09.309Z,4.97
2018-05-11T04:00:35.655Z,5.40
2018-05-11T04:03:14.393Z,5.65
2018-05-11T04:05:52.887Z,5.45
2018-05-11T04:08:31.592Z,5.47
2018-05-11T04:10:57.787Z,6.30
2018-05-11T04:13:24.073Z,5.20
2018-05-11T04:15:51.627Z,6.18
2018-05-11T04:18:17.854Z,5.30
2018-05-11T04:20:44.522Z,6.00
2018-05-11T04:23:13.620Z,5.72
2018-05-11T04:25:42.855Z,5.28
2018-05-11T04:28:09.105Z,5.72
2018-05-11T04:30:35.332Z,5.87
2018-05-11T04:33:01.563Z,5.25
2018-05-11T04:35:27.866Z,5.18
2018-05-11T04:37:54.067Z,5.20
2018-05-11T04:40:20.311Z,5.15
2018-05-11T04:42:46.514Z,6.20
2018-05-11T04:45:12.764Z,6.15
2018-05-11T04:47:39.000Z,5.47
2018-05-11T04:50:06.009Z,5.75
2018-05-11T04:52:33.250Z,5.50
2018-05-11T04:55:00.160Z,5.70
2018-05-11T04:57:26.365Z,6.30
2018-05-11T04:59:52.631Z,6.25
2018-05-11T05:02:19.206Z,6.15
2018-05-11T05:04:45.429Z,6.65
2018-05-11T05:07:11.669Z,5.55
2018-05-11T05:09:37.917Z,6.30
2018-05-11T05:12:11.060Z,5.80
2018-05-11T05:14:37.297Z,6.28
2018-05-11T05:17:03.502Z,7.30
2018-05-11T05:19:35.830Z,7.18
2018-05-11T05:22:04.715Z,6.90
2018-05-11T05:24:30.935Z,7.20
2018-05-11T05:26:57.163Z,7.25
2018-05-11T05:29:23.417Z,6.80
2018-05-11T05:31:49.632Z,6.97
2018-05-11T05:34:16.499Z,7.70
2018-05-11T05:36:43.886Z,6.78
2018-05-11T05:39:11.148Z,8.43
2018-05-11T05:41:37.371Z,8.00
2018-05-11T05:44:03.681Z,6.90
2018-05-11T05:46:30.277Z,7.82
2018-05-11T05:48:56.495Z,7.68
2018-05-11T05:51:22.731Z,7.05
2018-05-11T05:53:48.964Z,7.03
2018-05-11T05:56:15.196Z,7.10
2018-05-11T05:58:41.439Z,8.10
2018-05-11T06:01:07.689Z,8.15
2018-05-11T06:03:35.084Z,8.70
2018-05-11T06:06:01.338Z,10.30
2018-05-11T06:08:27.557Z,12.95
2018-05-11T06:10:54.008Z,14.52
2018-05-11T06:13:20.178Z,14.75
2018-05-11T06:15:46.521Z,13.93
2018-05-11T06:18:12.684Z,12.35
2018-05-11T06:20:38.953Z,10.52
2018-05-11T06:23:05.566Z,9.95
2018-05-11T06:25:31.816Z,10.70
2018-05-11T06:27:58.195Z,10.63
2018-05-11T06:30:24.462Z,10.60
2018-05-11T06:32:50.693Z,10.85
2018-05-11T06:35:16.936Z,10.98
2018-05-11T06:37:43.222Z,12.85
2018-05-11T06:40:09.462Z,13.43
2018-05-11T06:42:36.533Z,14.27
2018-05-11T06:45:04.080Z,13.88
2018-05-11T06:47:31.312Z,13.62
2018-05-11T06:49:57.627Z,15.15
2018-05-11T06:52:23.904Z,15.07
2018-05-11T06:54:50.538Z,15.40
2018-05-11T06:57:16.789Z,16.33
2018-05-11T06:59:43.035Z,16.83
2018-05-11T07:02:09.308Z,16.10
2018-05-11T07:04:35.513Z,17.45
2018-05-11T07:07:01.770Z,17.80
2018-05-11T07:09:28.002Z,17.48
2018-05-11T07:11:54.228Z,17.73
2018-05-11T07:14:20.507Z,21.20
2018-05-11T07:16:47.600Z,20.10
2018-05-11T07:19:13.890Z,20.20
2018-05-11T07:21:40.105Z,20.02
2018-05-11T07:24:06.375Z,22.30
2018-05-11T07:26:32.603Z,23.17
2018-05-11T07:28:58.828Z,23.00
2018-05-11T07:31:25.126Z,23.80
2018-05-11T07:33:51.351Z,23.58
2018-05-11T07:36:17.606Z,23.65
2018-05-11T07:38:43.857Z,21.93
2018-05-11T07:41:10.081Z,24.10
2018-05-11T07:43:36.342Z,24.80
2018-05-11T07:46:02.597Z,24.75
2018-05-11T07:48:28.851Z,23.33
2018-05-11T07:50:55.124Z,22.73
2018-05-11T07:53:21.315Z,22.80
2018-05-11T07:55:47.579Z,22.13
2018-05-11T07:58:13.811Z,23.43
2018-05-11T08:00:40.439Z,24.63
2018-05-11T08:03:06.661Z,26.23
2018-05-11T08:05:39.328Z,22.57
2018-05-11T08:08:07.189Z,24.30
2018-05-11T08:10:33.422Z,24.40
2018-05-11T08:12:59.684Z,26.40
2018-05-11T08:15:25.958Z,23.67
2018-05-11T08:17:52.223Z,24.83
2018-05-11T08:20:18.446Z,21.37
2018-05-11T08:22:44.695Z,23.80
2018-05-11T08:25:10.933Z,24.60
2018-05-11T08:27:40.664Z,21.80
2018-05-11T08:30:07.853Z,22.20
2018-05-11T08:32:34.077Z,22.20
2018-05-11T08:35:00.316Z,23.83
2018-05-11T08:37:26.567Z,24.40
2018-05-11T08:39:53.418Z,23.07
2018-05-11T08:42:19.681Z,26.23
2018-05-11T08:44:45.951Z,24.40
2018-05-11T08:47:12.621Z,21.63
2018-05-11T08:49:38.860Z,21.67
2018-05-11T08:52:05.090Z,23.43
2018-05-11T08:54:31.330Z,22.07
2018-05-11T08:56:57.555Z,23.07
2018-05-11T08:59:23.819Z,22.80
2018-05-11T09:01:50.046Z,23.10
2018-05-11T09:04:16.350Z,21.00
2018-05-11T09:06:42.611Z,22.13
2018-05-11T09:09:08.836Z,21.33
2018-05-11T09:11:35.086Z,21.73
2018-05-11T09:14:01.378Z,18.87
2018-05-11T09:16:27.648Z,18.20
2018-05-11T09:18:54.231Z,18.73
2018-05-11T09:21:20.506Z,17.73
2018-05-11T09:23:46.713Z,18.83
2018-05-11T09:26:12.949Z,19.80
2018-05-11T09:28:39.191Z,17.07
2018-05-11T09:31:05.437Z,17.70
2018-05-11T09:33:31.648Z,16.97
2018-05-11T09:35:57.928Z,19.20
2018-05-11T09:38:24.142Z,17.43
2018-05-11T09:40:50.391Z,18.03
2018-05-11T09:43:16.654Z,18.10
2018-05-11T09:45:43.264Z,18.30
2018-05-11T09:48:11.217Z,17.00
2018-05-11T09:50:38.364Z,17.73
2018-05-11T09:53:04.608Z,17.50
2018-05-11T09:55:30.869Z,16.13
2018-05-11T09:57:57.474Z,18.03
2018-05-11T10:00:25.519Z,16.70
2018-05-11T10:02:51.757Z,17.40
2018-05-11T10:05:17.963Z,17.60
2018-05-11T10:07:45.220Z,16.37
2018-05-11T10:10:11.416Z,18.20
2018-05-11T10:12:37.647Z,18.30
2018-05-11T10:15:03.907Z,18.63
2018-05-11T10:17:30.132Z,20.10
2018-05-11T10:19:56.367Z,20.40
2018-05-11T10:22:22.612Z,18.00
2018-05-11T10:24:48.824Z,18.10
2018-05-11T10:27:15.065Z,26.90
2018-05-11T10:29:41.308Z,21.50
2018-05-11T10:32:09.589Z,19.73
2018-05-11T10:34:35.985Z,20.57
2018-05-11T10:37:02.132Z,21.80
2018-05-11T10:39:29.842Z,20.07
2018-05-11T10:41:56.471Z,21.77
2018-05-11T10:44:22.718Z,17.40
2018-05-11T10:46:49.467Z,17.30
2018-05-11T10:49:16.672Z,17.00
2018-05-11T10:51:42.900Z,19.63
2018-05-11T10:54:09.177Z,18.27
2018-05-11T10:56:35.465Z,19.17
2018-05-11T10:59:01.766Z,19.73
2018-05-11T11:01:28.044Z,18.90
2018-05-11T11:03:54.696Z,18.07
2018-05-11T11:06:21.037Z,17.50
2018-05-11T11:08:47.657Z,16.10
2018-05-11T11:11:14.316Z,17.63
2018-05-11T11:13:41.006Z,16.93
2018-05-11T11:16:07.499Z,17.27
2018-05-11T11:18:34.400Z,16.40
2018-05-11T11:21:00.842Z,20.33
2018-05-11T11:23:27.467Z,17.10
2018-05-11T11:25:54.283Z,17.80
2018-05-11T11:28:21.973Z,17.43
2018-05-11T11:30:48.961Z,18.00
2018-05-11T11:33:17.853Z,18.80
2018-05-11T11:35:44.095Z,20.60
2018-05-11T11:38:10.337Z,18.37
2018-05-11T11:40:36.604Z,18.53
2018-05-11T11:43:02.859Z,17.80
2018-05-11T11:45:29.471Z,18.67
2018-05-11T11:47:55.689Z,19.47
2018-05-11T11:50:21.963Z,18.07
2018-05-11T11:52:48.554Z,18.67
2018-05-11T11:55:14.783Z,17.10
2018-05-11T11:57:40.993Z,17.13
2018-05-11T12:00:07.245Z,18.07
2018-05-11T12:02:33.509Z,20.50
2018-05-11T12:05:00.119Z,20.93
2018-05-11T12:07:26.367Z,17.30
2018-05-11T12:09:52.982Z,18.80
2018-05-11T12:12:19.233Z,16.60
2018-05-11T12:14:45.833Z,18.30
2018-05-11T12:17:12.079Z,14.73
2018-05-11T12:19:38.321Z,15.60
2018-05-11T12:22:04.907Z,15.03
2018-05-11T12:24:31.160Z,17.03
2018-05-11T12:26:57.428Z,15.77
2018-05-11T12:29:24.016Z,16.57
2018-05-11T12:31:50.249Z,16.30
2018-05-11T12:34:16.504Z,16.10
2018-05-11T12:36:43.091Z,15.40
2018-05-11T12:39:09.340Z,15.40
2018-05-11T12:41:35.559Z,15.77
2018-05-11T12:44:01.816Z,15.40
2018-05-11T12:46:28.074Z,13.53
2018-05-11T12:48:54.325Z,14.37
2018-05-11T12:51:20.564Z,14.50
2018-05-11T12:53:46.794Z,13.10
2018-05-11T12:56:13.057Z,13.60
2018-05-11T12:58:40.231Z,13.97
2018-05-11T13:01:06.839Z,14.67
2018-05-11T13:03:33.060Z,14.00
2018-05-11T13:05:59.300Z,13.77
2018-05-11T13:08:25.566Z,16.63
2018-05-11T13:10:51.792Z,13.50
2018-05-11T13:13:18.036Z,12.67
2018-05-11T13:15:44.300Z,13.83
2018-05-11T13:18:10.598Z,13.57
2018-05-11T13:20:36.928Z,14.20
2018-05-11T13:23:03.089Z,13.23
2018-05-11T13:25:29.345Z,14.43
2018-05-11T13:27:55.961Z,13.13
2018-05-11T13:30:22.259Z,14.47
2018-05-11T13:32:48.475Z,13.53
2018-05-11T13:35:14.735Z,13.70
2018-05-11T13:37:40.944Z,13.63
2018-05-11T13:40:07.209Z,14.30
2018-05-11T13:42:34.288Z,15.50
2018-05-11T13:45:00.562Z,13.90
2018-05-11T13:47:26.781Z,14.83
2018-05-11T13:49:53.050Z,14.73
2018-05-11T13:52:19.269Z,15.20
2018-05-11T13:54:45.549Z,15.00
2018-05-11T13:57:11.792Z,13.80
2018-05-11T13:59:38.062Z,14.57
2018-05-11T14:02:04.352Z,15.20
2018-05-11T14:04:30.648Z,14.87
2018-05-11T14:06:56.873Z,15.27
2018-05-11T14:09:23.462Z,13.83
2018-05-11T14:11:49.695Z,14.10
2018-05-11T14:14:15.937Z,13.40
2018-05-11T14:16:42.190Z,12.97
2018-05-11T14:19:08.792Z,14.40
2018-05-11T14:21:35.015Z,14.03
2018-05-11T14:24:01.235Z,12.57
2018-05-11T14:26:27.454Z,14.10
2018-05-11T14:28:53.700Z,13.70
2018-05-11T14:31:20.020Z,15.03
2018-05-11T14:33:46.266Z,14.27
2018-05-11T14:36:12.523Z,14.50
2018-05-11T14:38:39.139Z,13.70
2018-05-11T14:41:05.399Z,14.50
2018-05-11T14:43:31.617Z,13.77
2018-05-11T14:45:57.859Z,13.67
2018-05-11T14:48:24.513Z,14.60
2018-05-11T14:50:50.748Z,15.60
2018-05-11T14:53:17.003Z,15.60
2018-05-11T14:55:43.229Z,15.87
2018-05-11T14:58:09.432Z,14.63
2018-05-11T15:00:35.664Z,15.10
2018-05-11T15:03:01.895Z,14.30
2018-05-11T15:05:28.903Z,14.37
2018-05-11T15:07:55.137Z,15.80
2018-05-11T15:10:21.400Z,13.87
2018-05-11T15:12:47.700Z,13.10
2018-05-11T15:15:13.954Z,14.27
2018-05-11T15:17:40.226Z,15.13
2018-05-11T15:20:06.472Z,15.33
2018-05-11T15:22:32.768Z,14.60
2018-05-11T15:24:58.998Z,15.03
2018-05-11T15:27:25.227Z,16.10
2018-05-11T15:29:51.458Z,15.70
2018-05-11T15:32:17.744Z,16.60
2018-05-11T15:34:43.991Z,13.77
2018-05-11T15:37:10.214Z,16.50
2018-05-11T15:39:36.460Z,15.83
2018-05-11T15:42:02.716Z,16.27
2018-05-11T15:44:28.928Z,14.10
2018-05-11T15:46:56.416Z,15.27
2018-05-11T15:49:22.637Z,16.80
2018-05-11T15:51:48.911Z,16.30
2018-05-11T15:54:15.130Z,15.17
2018-05-11T15:56:41.392Z,15.00
2018-05-11T15:59:07.664Z,28.20
2018-05-11T16:01:33.847Z,20.43
2018-05-11T16:04:00.110Z,16.63
2018-05-11T16:06:26.789Z,18.53
2018-05-11T16:08:53.014Z,47.93
2018-05-11T16:11:19.278Z,19.80
2018-05-11T16:13:45.496Z,18.43
2018-05-11T16:16:11.795Z,25.43
2018-05-11T16:18:38.072Z,22.40
2018-05-11T16:21:04.311Z,27.20
2018-05-11T16:23:30.608Z,20.57
2018-05-11T16:25:56.900Z,22.27
2018-05-11T16:28:23.398Z,21.40
2018-05-11T16:30:49.548Z,23.13
2018-05-11T16:33:15.825Z,39.23
2018-05-11T16:35:42.061Z,23.90
2018-05-11T16:38:08.329Z,21.07
2018-05-11T16:40:34.990Z,22.20
2018-05-11T16:43:01.602Z,22.90
2018-05-11T16:45:28.186Z,22.53
2018-05-11T16:47:54.441Z,21.87
2018-05-11T16:50:20.693Z,23.30
2018-05-11T16:52:47.383Z,23.70
2018-05-11T16:55:14.592Z,24.07
2018-05-11T16:57:41.203Z,23.97
2018-05-11T17:00:07.508Z,23.67
2018-05-11T17:02:33.732Z,23.70
2018-05-11T17:04:59.968Z,24.50
2018-05-11T17:07:26.200Z,24.00
2018-05-11T17:09:52.465Z,24.67
2018-05-11T17:12:19.177Z,23.30
2018-05-11T17:14:45.468Z,22.83
2018-05-11T17:17:11.667Z,24.87
2018-05-11T17:19:38.314Z,25.20
2018-05-11T17:22:04.929Z,27.60
2018-05-11T17:24:31.556Z,26.10
2018-05-11T17:26:57.826Z,26.43
2018-05-11T17:29:24.062Z,28.50
2018-05-11T17:31:51.191Z,26.77
2018-05-11T17:34:17.419Z,26.07
2018-05-11T17:36:43.644Z,25.60
2018-05-11T17:39:09.904Z,24.90
2018-05-11T17:41:36.221Z,26.07
2018-05-11T17:44:09.320Z,24.60
2018-05-11T17:46:35.540Z,25.97
2018-05-11T17:49:04.724Z,26.07
2018-05-11T17:51:30.947Z,23.60
2018-05-11T17:53:57.573Z,24.63
2018-05-11T17:56:24.199Z,24.20
2018-05-11T17:58:50.420Z,26.00
2018-05-11T18:01:16.680Z,22.87
2018-05-11T18:03:42.949Z,24.80
2018-05-11T18:06:09.232Z,25.23
2018-05-11T18:08:35.464Z,24.80
2018-05-11T18:11:01.739Z,26.03
2018-05-11T18:13:27.969Z,23.80
2018-05-11T18:15:54.231Z,27.17
2018-05-11T18:18:20.478Z,26.00
2018-05-11T18:20:47.086Z,26.43
2018-05-11T18:23:13.301Z,25.17
2018-05-11T18:25:39.586Z,24.23
2018-05-11T18:28:05.816Z,25.00
2018-05-11T18:30:32.072Z,27.37
2018-05-11T18:32:58.322Z,26.07
2018-05-11T18:35:24.571Z,24.77
2018-05-11T18:37:51.513Z,27.73
2018-05-11T18:40:17.833Z,23.63
2018-05-11T18:42:44.103Z,24.40
2018-05-11T18:45:10.362Z,25.80
2018-05-11T18:47:43.417Z,27.17
2018-05-11T18:50:09.737Z,25.53
2018-05-11T18:52:35.942Z,26.50
2018-05-11T18:55:02.310Z,26.60
2018-05-11T18:57:28.593Z,28.30
2018-05-11T18:59:54.842Z,26.80
2018-05-11T19:02:21.120Z,27.10
2018-05-11T19:04:47.412Z,29.00
2018-05-11T19:07:14.054Z,28.30
2018-05-11T19:09:40.692Z,29.37
2018-05-11T19:12:07.321Z,28.03
2018-05-11T19:14:33.606Z,27.70
2018-05-11T19:17:00.734Z,29.40
2018-05-11T19:19:27.052Z,29.20
2018-05-11T19:21:53.287Z,29.97
2018-05-11T19:24:19.531Z,27.17
2018-05-11T19:26:45.812Z,28.60
2018-05-11T19:29:12.053Z,26.27
2018-05-11T19:31:38.314Z,27.83
2018-05-11T19:34:04.589Z,26.90
2018-05-11T19:36:31.271Z,29.80
2018-05-11T19:38:57.568Z,29.23
2018-05-11T19:41:24.567Z,30.03
2018-05-11T19:43:50.913Z,30.30
2018-05-11T19:46:17.193Z,29.93
2018-05-11T19:48:43.440Z,31.37
2018-05-11T19:51:09.697Z,30.70
2018-05-11T19:53:35.989Z,32.20
2018-05-11T19:56:02.432Z,32.33
2018-05-11T19:58:28.686Z,32.00
2018-05-11T20:00:54.924Z,30.70
2018-05-11T20:03:21.200Z,31.67
2018-05-11T20:05:47.466Z,32.17
2018-05-11T20:08:13.780Z,32.37
2018-05-11T20:10:42.343Z,31.47
2018-05-11T20:13:08.591Z,32.67
2018-05-11T20:15:34.902Z,33.37
2018-05-11T20:18:01.194Z,32.03
2018-05-11T20:20:27.469Z,32.00
2018-05-11T20:22:54.357Z,32.17
2018-05-11T20:25:20.617Z,33.30
2018-05-11T20:27:47.279Z,32.87
2018-05-11T20:30:13.658Z,32.43
2018-05-11T20:32:40.025Z,33.90
2018-05-11T20:35:06.747Z,32.40
2018-05-11T20:37:33.371Z,34.03
2018-05-11T20:39:59.619Z,31.13
2018-05-11T20:42:26.237Z,30.80
2018-05-11T20:44:53.366Z,30.70
2018-05-11T20:47:19.638Z,31.67
2018-05-11T20:49:45.918Z,32.37
2018-05-11T20:52:12.151Z,34.47
2018-05-11T20:54:38.531Z,31.23
2018-05-11T20:57:05.144Z,33.57
2018-05-11T20:59:31.551Z,29.50
2018-05-11T21:01:57.921Z,30.80
2018-05-11T21:04:24.154Z,31.00
2018-05-11T21:06:50.799Z,32.63
2018-05-11T21:09:17.718Z,34.00
2018-05-11T21:11:44.478Z,32.07
2018-05-11T21:14:11.112Z,33.07
2018-05-11T21:16:37.729Z,33.03
2018-05-11T21:19:03.947Z,32.77
2018-05-11T21:21:30.182Z,32.33
2018-05-11T21:23:57.457Z,31.00
2018-05-11T21:26:24.121Z,32.60
2018-05-11T21:28:50.312Z,32.60
2018-05-11T21:31:16.541Z,32.37
2018-05-11T21:33:43.609Z,33.50
2018-05-11T21:36:10.266Z,33.50
2018-05-11T21:38:36.695Z,33.43
2018-05-11T21:41:03.012Z,32.50
2018-05-11T21:43:29.284Z,32.57
2018-05-11T21:45:55.520Z,31.67
2018-05-11T21:48:21.742Z,32.90
2018-05-11T21:50:48.034Z,32.17
2018-05-11T21:53:14.279Z,33.20
2018-05-11T21:55:40.500Z,32.77
2018-05-11T21:58:06.770Z,33.80
2018-05-11T22:00:33.038Z,33.23
2018-05-11T22:02:59.259Z,33.30
2018-05-11T22:05:25.526Z,34.00
2018-05-11T22:07:51.751Z,34.37
2018-05-11T22:10:24.927Z,37.37
2018-05-11T22:12:51.167Z,36.90
2018-05-11T22:15:17.511Z,35.90
2018-05-11T22:17:43.784Z,34.60
2018-05-11T22:20:10.059Z,34.43
2018-05-11T22:22:36.260Z,34.20
2018-05-11T22:25:02.516Z,33.13
2018-05-11T22:27:35.890Z,32.90
2018-05-11T22:30:02.165Z,31.57
2018-05-11T22:32:28.415Z,32.03
2018-05-11T22:34:54.675Z,35.30
2018-05-11T22:37:20.902Z,31.67
2018-05-11T22:39:47.500Z,30.60
2018-05-11T22:42:13.741Z,30.13
2018-05-11T22:44:39.991Z,33.40
2018-05-11T22:47:06.233Z,31.43
2018-05-11T22:49:32.503Z,30.27
2018-05-11T22:51:58.748Z,34.23
2018-05-11T22:54:25.007Z,29.47
2018-05-11T22:56:51.240Z,32.17
2018-05-11T22:59:17.453Z,30.87
2018-05-11T23:01:43.685Z,30.97
2018-05-11T23:04:09.984Z,31.03
2018-05-11T23:06:36.195Z,30.83
2018-05-11T23:09:02.456Z,31.30
2018-05-11T23:11:28.688Z,32.40
2018-05-11T23:13:54.928Z,33.43
2018-05-11T23:16:21.199Z,31.20
2018-05-11T23:18:47.423Z,31.83
2018-05-11T23:21:13.644Z,30.53
2018-05-11T23:23:39.838Z,33.50
2018-05-11T23:26:06.440Z,31.37
2018-05-11T23:28:32.655Z,32.97
2018-05-11T23:30:58.851Z,32.30
2018-05-11T23:33:25.092Z,31.23
2018-05-11T23:35:51.321Z,31.20
2018-05-11T23:38:17.573Z,31.40
2018-05-11T23:40:43.829Z,31.23
2018-05-11T23:43:10.451Z,32.63
2018-05-11T23:45:36.678Z,33.10
2018-05-11T23:48:02.917Z,29.90
2018-05-11T23:50:29.165Z,29.37
2018-05-11T23:52:55.782Z,31.33
2018-05-11T23:55:23.274Z,30.00
2018-05-11T23:57:49.525Z,29.20
